createdAt,value
2022-12-23T00:01:24.525Z,13.89
2022-12-23T00:03:53.144Z,13.74
2022-12-23T00:06:21.417Z,13.54
2022-12-23T00:08:48.573Z,13.33
2022-12-23T00:11:20.705Z,13.21
2022-12-23T00:14:06.634Z,13.40
2022-12-23T00:16:37.725Z,13.81
2022-12-23T00:19:05.835Z,13.98
2022-12-23T00:21:33.517Z,13.82
2022-12-23T00:24:00.712Z,13.41
2022-12-23T00:26:28.433Z,13.58
2022-12-23T00:29:01.386Z,13.51
2022-12-23T00:31:28.566Z,13.05
2022-12-23T00:33:55.774Z,13.58
2022-12-23T00:36:30.380Z,13.56
2022-12-23T00:39:18.393Z,13.25
2022-12-23T00:42:04.718Z,13.22
2022-12-23T00:44:32.240Z,13.01
2022-12-23T00:46:59.248Z,13.82
2022-12-23T00:49:45.098Z,13.59
2022-12-23T00:52:15.892Z,13.39
2022-12-23T00:54:43.182Z,13.38
2022-12-23T00:57:10.501Z,13.78
2022-12-23T00:59:38.200Z,13.95
2022-12-23T01:02:24.361Z,13.67
2022-12-23T01:05:10.156Z,13.76
2022-12-23T01:07:37.863Z,13.61
2022-12-23T01:10:05.554Z,14.23
2022-12-23T01:12:32.685Z,14.36
2022-12-23T01:14:59.868Z,13.70
2022-12-23T01:17:27.067Z,13.51
2022-12-23T01:19:54.287Z,13.45
2022-12-23T01:22:21.486Z,13.14
2022-12-23T01:24:48.691Z,13.38
2022-12-23T01:27:15.830Z,14.25
2022-12-23T01:29:43.018Z,14.32
2022-12-23T01:32:10.322Z,14.49
2022-12-23T01:34:37.883Z,14.38
2022-12-23T01:37:05.896Z,14.28
2022-12-23T01:39:33.201Z,14.35
2022-12-23T01:42:23.665Z,14.43
2022-12-23T01:45:04.738Z,14.20
2022-12-23T01:48:00.602Z,14.11
2022-12-23T01:50:53.770Z,14.60
2022-12-23T01:53:45.409Z,14.47
2022-12-23T01:56:39.708Z,14.59
2022-12-23T01:59:34.365Z,14.48
2022-12-23T02:02:22.695Z,14.83
2022-12-23T02:04:53.725Z,14.04
2022-12-23T02:07:41.181Z,14.05
2022-12-23T02:10:13.339Z,14.09
2022-12-23T02:13:11.987Z,14.07
2022-12-23T02:16:18.417Z,14.38
2022-12-23T02:19:33.216Z,14.71
2022-12-23T02:22:54.872Z,14.93
2022-12-23T02:26:06.083Z,14.23
2022-12-23T02:28:54.744Z,13.99
2022-12-23T02:32:14.860Z,14.79
2022-12-23T02:35:06.467Z,14.32
2022-12-23T02:38:26.745Z,14.53
2022-12-23T02:41:09.712Z,14.21
2022-12-23T02:44:02.263Z,14.22
2022-12-23T02:46:58.099Z,14.68
2022-12-23T02:49:41.164Z,14.53
2022-12-23T02:52:15.911Z,14.16
2022-12-23T02:54:51.918Z,14.57
2022-12-23T02:57:29.797Z,14.62
2022-12-23T03:00:00.275Z,14.74
2022-12-23T03:02:27.829Z,14.53
2022-12-23T03:04:55.089Z,14.73
2022-12-23T03:07:33.918Z,14.89
2022-12-23T03:10:39.044Z,15.29
2022-12-23T03:13:57.429Z,14.93
2022-12-23T03:16:53.471Z,14.96
2022-12-23T03:19:59.423Z,14.91
2022-12-23T03:23:01.811Z,14.92
2022-12-23T03:26:09.442Z,15.46
2022-12-23T03:29:06.449Z,15.11
2022-12-23T03:31:35.796Z,14.28
2022-12-23T03:34:11.116Z,14.37
2022-12-23T03:36:51.712Z,14.66
2022-12-23T03:39:25.711Z,14.50
2022-12-23T03:42:09.056Z,14.70
2022-12-23T03:45:03.690Z,14.54
2022-12-23T03:47:45.430Z,14.26
2022-12-23T03:50:17.636Z,14.22
2022-12-23T03:52:55.807Z,14.79
2022-12-23T03:55:45.612Z,14.01
2022-12-23T03:58:58.827Z,12.76
2022-12-23T04:01:51.228Z,13.44
2022-12-23T04:04:30.447Z,13.60
2022-12-23T04:07:16.766Z,13.36
2022-12-23T04:09:45.167Z,13.74
2022-12-23T04:12:14.929Z,13.89
2022-12-23T04:14:50.478Z,13.81
2022-12-23T04:17:19.144Z,14.52
2022-12-23T04:19:47.319Z,14.15
2022-12-23T04:22:16.160Z,13.44
2022-12-23T04:24:46.071Z,13.31
2022-12-23T04:27:19.750Z,13.81
2022-12-23T04:29:53.856Z,11.52
2022-12-23T04:32:22.679Z,12.41
2022-12-23T04:34:49.926Z,12.80
2022-12-23T04:37:20.209Z,12.72
2022-12-23T04:39:47.801Z,12.59
2022-12-23T04:42:16.522Z,12.92
2022-12-23T04:44:43.616Z,13.92
2022-12-23T04:47:10.884Z,13.67
2022-12-23T04:49:38.176Z,13.28
2022-12-23T04:52:05.761Z,13.61
2022-12-23T04:54:33.022Z,13.60
2022-12-23T04:57:00.486Z,13.77
2022-12-23T04:59:27.645Z,13.89
2022-12-23T05:01:54.927Z,14.02
2022-12-23T05:04:22.190Z,14.21
2022-12-23T05:06:52.929Z,14.25
2022-12-23T05:09:21.948Z,14.42
2022-12-23T05:11:52.448Z,13.88
2022-12-23T05:14:20.111Z,13.89
2022-12-23T05:16:48.788Z,14.17
2022-12-23T05:19:16.117Z,14.62
2022-12-23T05:21:43.280Z,14.18
2022-12-23T05:24:12.559Z,14.03
2022-12-23T05:26:39.697Z,13.98
2022-12-23T05:29:09.773Z,13.08
2022-12-23T05:31:37.131Z,13.82
2022-12-23T05:34:06.615Z,13.82
2022-12-23T05:36:34.169Z,14.01
2022-12-23T05:39:01.313Z,13.88
2022-12-23T05:41:28.530Z,14.09
2022-12-23T05:43:55.837Z,14.13
2022-12-23T05:46:26.878Z,13.54
2022-12-23T05:48:54.687Z,14.65
2022-12-23T05:51:21.890Z,14.14
2022-12-23T05:53:49.202Z,14.13
2022-12-23T05:56:16.362Z,14.17
2022-12-23T05:58:43.648Z,13.96
2022-12-23T06:01:12.193Z,13.99
2022-12-23T06:03:39.462Z,13.59
2022-12-23T06:06:07.243Z,12.78
2022-12-23T06:08:34.895Z,12.97
2022-12-23T06:11:05.794Z,12.84
2022-12-23T06:13:32.930Z,13.37
2022-12-23T06:16:00.118Z,13.68
2022-12-23T06:18:27.396Z,14.57
2022-12-23T06:20:54.843Z,12.99
2022-12-23T06:23:22.025Z,13.64
2022-12-23T06:25:49.185Z,13.79
2022-12-23T06:28:16.618Z,13.67
2022-12-23T06:30:43.996Z,14.29
2022-12-23T06:33:11.108Z,14.83
2022-12-23T06:35:38.261Z,15.03
2022-12-23T06:38:11.701Z,14.43
2022-12-23T06:40:40.538Z,14.43
2022-12-23T06:43:08.069Z,15.25
2022-12-23T06:45:35.203Z,15.22
2022-12-23T06:48:02.373Z,14.43
2022-12-23T06:50:29.580Z,15.06
2022-12-23T06:52:57.796Z,15.14
2022-12-23T06:55:25.027Z,14.15
2022-12-23T06:57:52.236Z,15.14
2022-12-23T07:00:20.261Z,14.73
2022-12-23T07:02:47.520Z,15.12
2022-12-23T07:05:15.117Z,14.64
2022-12-23T07:07:42.123Z,14.24
2022-12-23T07:10:10.236Z,15.32
2022-12-23T07:12:37.467Z,14.93
2022-12-23T07:15:07.814Z,14.46
2022-12-23T07:17:35.092Z,14.98
2022-12-23T07:20:02.292Z,14.95
2022-12-23T07:22:29.725Z,15.52
2022-12-23T07:24:56.953Z,15.86
2022-12-23T07:27:24.116Z,14.82
2022-12-23T07:29:52.092Z,15.59
2022-12-23T07:32:19.360Z,15.86
2022-12-23T07:34:46.568Z,15.98
2022-12-23T07:37:13.711Z,16.26
2022-12-23T07:39:40.904Z,16.24
2022-12-23T07:42:42.726Z,16.60
2022-12-23T07:44:55.255Z,14.04
2022-12-23T07:47:23.606Z,14.88
2022-12-23T07:49:51.560Z,13.87
2022-12-23T07:52:18.811Z,12.84
2022-12-23T07:54:46.011Z,13.90
2022-12-23T07:57:13.208Z,13.95
2022-12-23T07:59:40.466Z,13.42
2022-12-23T08:02:07.924Z,13.46
2022-12-23T08:04:37.458Z,14.94
2022-12-23T08:07:10.468Z,15.45
2022-12-23T08:09:37.605Z,15.68
2022-12-23T08:12:04.994Z,15.51
2022-12-23T08:14:33.137Z,15.53
2022-12-23T08:17:00.361Z,15.60
2022-12-23T08:19:27.623Z,16.65
2022-12-23T08:21:54.835Z,17.36
2022-12-23T08:24:22.213Z,17.73
2022-12-23T08:26:49.277Z,18.24
2022-12-23T08:29:18.025Z,18.06
2022-12-23T08:31:45.203Z,16.66
2022-12-23T08:34:12.530Z,17.53
2022-12-23T08:36:40.201Z,18.23
2022-12-23T08:39:13.144Z,18.98
2022-12-23T08:41:45.676Z,17.21
2022-12-23T08:44:14.007Z,17.08
2022-12-23T08:46:42.729Z,18.01
2022-12-23T08:49:10.937Z,18.61
2022-12-23T08:51:39.266Z,19.44
2022-12-23T08:54:07.766Z,16.99
2022-12-23T08:56:41.381Z,16.01
2022-12-23T08:59:19.519Z,16.40
2022-12-23T09:01:48.341Z,17.18
2022-12-23T09:04:16.072Z,17.04
2022-12-23T09:06:45.549Z,17.70
2022-12-23T09:09:15.898Z,18.98
2022-12-23T09:11:43.352Z,19.26
2022-12-23T09:14:11.816Z,18.72
2022-12-23T09:16:39.822Z,17.50
2022-12-23T09:19:08.069Z,16.97
2022-12-23T09:21:35.771Z,15.71
2022-12-23T09:24:04.097Z,15.27
2022-12-23T09:26:33.560Z,17.56
2022-12-23T09:29:00.889Z,17.01
2022-12-23T09:31:34.412Z,18.46
2022-12-23T09:34:04.662Z,17.17
2022-12-23T09:39:13.989Z,17.89
2022-12-23T09:42:03.320Z,19.06
2022-12-23T09:44:55.083Z,17.97
2022-12-23T09:47:26.967Z,19.34
2022-12-23T09:50:03.376Z,19.77
2022-12-23T09:53:05.828Z,19.98
2022-12-23T09:56:34.444Z,17.48
2022-12-23T09:59:35.009Z,17.37
2022-12-23T10:02:23.496Z,17.92
2022-12-23T10:05:07.516Z,18.70
2022-12-23T10:07:47.948Z,19.73
2022-12-23T10:10:45.461Z,19.52
2022-12-23T10:13:39.520Z,20.36
2022-12-23T10:16:19.756Z,17.20
2022-12-23T10:19:05.175Z,17.11
2022-12-23T10:21:50.183Z,16.75
2022-12-23T10:24:28.057Z,18.09
2022-12-23T10:27:01.535Z,18.96
2022-12-23T10:29:34.122Z,19.58
2022-12-23T10:32:19.839Z,19.32
2022-12-23T10:35:13.567Z,17.39
2022-12-23T10:37:52.813Z,17.97
2022-12-23T10:40:57.517Z,18.85
2022-12-23T10:44:12.395Z,18.59
2022-12-23T10:47:24.545Z,17.56
2022-12-23T10:50:35.261Z,16.10
2022-12-23T10:53:12.646Z,16.93
2022-12-23T10:55:40.239Z,16.77
2022-12-23T10:58:16.595Z,16.95
2022-12-23T11:00:53.975Z,18.98
2022-12-23T11:04:03.440Z,19.00
2022-12-23T11:06:37.455Z,22.11
2022-12-23T11:09:16.667Z,23.31
2022-12-23T11:12:06.366Z,19.11
2022-12-23T11:14:58.361Z,22.98
2022-12-23T11:17:31.608Z,20.94
2022-12-23T11:20:11.211Z,21.14
2022-12-23T11:23:02.354Z,18.62
2022-12-23T11:25:40.513Z,19.17
2022-12-23T11:28:14.933Z,19.88
2022-12-23T11:30:56.597Z,21.42
2022-12-23T11:33:40.063Z,21.20
2022-12-23T11:36:18.259Z,22.51
2022-12-23T11:39:00.250Z,23.11
2022-12-23T11:41:38.116Z,25.56
2022-12-23T11:44:33.767Z,24.95
2022-12-23T11:47:29.388Z,23.81
2022-12-23T11:50:03.948Z,24.83
2022-12-23T11:52:34.118Z,21.47
2022-12-23T11:55:05.519Z,25.86
2022-12-23T11:57:46.706Z,32.32
2022-12-23T12:00:30.538Z,33.85
2022-12-23T12:03:02.446Z,30.77
2022-12-23T12:05:57.935Z,29.89
2022-12-23T12:08:34.263Z,25.61
2022-12-23T12:11:19.346Z,29.49
2022-12-23T12:13:55.965Z,31.94
2022-12-23T12:16:54.260Z,31.82
2022-12-23T12:19:35.876Z,33.55
2022-12-23T12:22:16.800Z,35.06
2022-12-23T12:24:56.295Z,29.23
2022-12-23T12:27:39.702Z,28.10
2022-12-23T12:30:15.985Z,32.14
2022-12-23T12:33:01.131Z,29.99
2022-12-23T12:35:53.999Z,31.40
2022-12-23T12:38:36.570Z,30.10
2022-12-23T12:41:24.593Z,31.72
2022-12-23T12:44:15.936Z,34.63
2022-12-23T12:47:07.022Z,31.68
2022-12-23T12:49:57.299Z,26.55
2022-12-23T12:52:36.582Z,27.61
2022-12-23T12:55:55.280Z,26.11
2022-12-23T12:58:25.260Z,25.66
2022-12-23T13:01:12.454Z,26.52
2022-12-23T13:03:45.438Z,27.95
2022-12-23T13:06:32.079Z,32.10
2022-12-23T13:09:16.805Z,33.48
2022-12-23T13:12:19.378Z,32.24
2022-12-23T13:15:21.737Z,34.62
2022-12-23T13:18:04.148Z,34.82
2022-12-23T13:21:02.242Z,35.38
2022-12-23T13:24:15.258Z,32.73
2022-12-23T13:27:20.042Z,33.46
2022-12-23T13:30:14.251Z,35.43
2022-12-23T13:33:18.817Z,34.34
2022-12-23T13:36:14.749Z,31.18
2022-12-23T13:39:40.810Z,31.04
2022-12-23T13:42:22.906Z,27.00
2022-12-23T13:45:14.821Z,27.47
2022-12-23T13:48:43.340Z,28.14
2022-12-23T13:51:28.596Z,31.00
2022-12-23T13:54:10.551Z,31.38
2022-12-23T13:56:53.823Z,29.76
2022-12-23T13:59:21.136Z,28.54
2022-12-23T14:01:52.723Z,28.15
2022-12-23T14:04:59.988Z,29.47
2022-12-23T14:07:32.031Z,29.27
2022-12-23T14:10:20.000Z,30.46
2022-12-23T14:12:48.211Z,28.82
2022-12-23T14:16:11.911Z,27.72
2022-12-23T14:18:58.452Z,26.96
2022-12-23T14:21:56.170Z,27.48
2022-12-23T14:25:19.599Z,26.53
2022-12-23T14:27:53.051Z,25.41
2022-12-23T14:30:45.853Z,25.46
2022-12-23T14:33:19.390Z,24.77
2022-12-23T14:35:46.535Z,26.45
2022-12-23T14:38:17.079Z,26.39
2022-12-23T14:40:51.346Z,25.05
2022-12-23T14:43:46.437Z,24.01
2022-12-23T14:46:48.913Z,23.72
2022-12-23T14:49:40.090Z,23.59
2022-12-23T14:52:40.786Z,22.54
2022-12-23T14:55:32.399Z,22.05
2022-12-23T14:58:11.451Z,21.44
2022-12-23T15:00:53.316Z,20.71
2022-12-23T15:03:57.391Z,20.17
2022-12-23T15:06:57.081Z,20.09
2022-12-23T15:09:43.371Z,19.54
2022-12-23T15:12:35.099Z,19.35
2022-12-23T15:15:18.668Z,19.42
2022-12-23T15:17:47.427Z,19.37
2022-12-23T15:20:21.573Z,18.97
2022-12-23T15:22:51.270Z,18.83
2022-12-23T15:25:30.307Z,18.22
2022-12-23T15:28:02.133Z,18.12
2022-12-23T15:30:46.243Z,18.08
2022-12-23T15:34:00.693Z,18.33
2022-12-23T15:36:11.510Z,18.35
2022-12-23T15:38:40.079Z,18.26
2022-12-23T15:41:17.045Z,17.76
2022-12-23T15:43:45.674Z,17.53
2022-12-23T15:46:29.246Z,17.84
2022-12-23T15:48:57.671Z,17.25
2022-12-23T15:52:06.353Z,17.43
2022-12-23T15:54:31.728Z,17.44
2022-12-23T15:57:01.548Z,17.07
2022-12-23T15:59:50.459Z,17.28
2022-12-23T16:03:00.377Z,17.32
2022-12-23T16:05:37.121Z,17.17
2022-12-23T16:08:23.063Z,17.46
2022-12-23T16:11:12.308Z,16.57
2022-12-23T16:13:46.689Z,17.29
2022-12-23T16:16:30.565Z,16.44
2022-12-23T16:18:57.927Z,16.87
2022-12-23T16:21:30.477Z,17.45
2022-12-23T16:23:59.141Z,17.63
2022-12-23T16:26:27.022Z,16.69
2022-12-23T16:29:00.930Z,17.18
2022-12-23T16:31:28.549Z,17.10
2022-12-23T16:33:58.515Z,17.48
2022-12-23T16:36:25.696Z,16.62
2022-12-23T16:39:06.741Z,16.25
2022-12-23T16:41:35.155Z,16.25
2022-12-23T16:44:02.868Z,16.42
2022-12-23T16:46:36.792Z,15.46
2022-12-23T16:49:11.220Z,16.07
2022-12-23T16:51:40.778Z,15.87
2022-12-23T16:54:19.477Z,16.49
2022-12-23T16:57:05.944Z,16.22
2022-12-23T16:59:33.521Z,16.19
2022-12-23T17:02:03.697Z,15.79
2022-12-23T17:04:31.307Z,16.02
2022-12-23T17:06:58.642Z,16.05
2022-12-23T17:09:26.177Z,15.92
2022-12-23T17:11:54.671Z,15.95
2022-12-23T17:14:26.097Z,16.19
2022-12-23T17:16:53.827Z,15.81
2022-12-23T17:19:27.761Z,15.92
2022-12-23T17:22:02.182Z,16.13
2022-12-23T17:24:29.630Z,15.92
2022-12-23T17:26:59.798Z,15.95
2022-12-23T17:29:27.254Z,16.36
2022-12-23T17:31:57.522Z,16.28
2022-12-23T17:34:25.487Z,16.12
2022-12-23T17:36:53.265Z,16.15
2022-12-23T17:39:22.329Z,15.94
2022-12-23T17:41:50.279Z,15.91
2022-12-23T17:44:18.654Z,16.19
2022-12-23T17:46:47.590Z,16.26
2022-12-23T17:49:15.731Z,16.44
2022-12-23T17:51:43.663Z,16.51
2022-12-23T17:54:32.791Z,16.30
2022-12-23T17:57:00.071Z,16.32
2022-12-23T17:59:27.213Z,16.73
2022-12-23T18:01:54.608Z,16.60
2022-12-23T18:04:21.792Z,16.34
2022-12-23T18:06:49.017Z,16.45
2022-12-23T18:09:16.927Z,16.58
2022-12-23T18:11:46.867Z,16.53
2022-12-23T18:14:20.541Z,16.36
2022-12-23T18:16:47.722Z,16.22
2022-12-23T18:19:20.955Z,16.22
2022-12-23T18:21:51.460Z,16.45
2022-12-23T18:24:19.266Z,16.13
2022-12-23T18:26:47.787Z,16.40
2022-12-23T18:29:15.127Z,16.58
2022-12-23T18:31:51.168Z,16.75
2022-12-23T18:34:20.372Z,16.30
2022-12-23T18:36:48.630Z,15.85
2022-12-23T18:39:16.071Z,15.90
2022-12-23T18:41:43.316Z,16.22
2022-12-23T18:44:20.105Z,16.27
2022-12-23T18:46:48.534Z,16.22
2022-12-23T18:49:15.817Z,15.89
2022-12-23T18:51:43.180Z,16.15
2022-12-23T18:54:16.189Z,16.20
2022-12-23T18:56:43.877Z,15.85
2022-12-23T18:59:28.981Z,15.98
2022-12-23T19:01:57.153Z,15.81
2022-12-23T19:04:27.328Z,15.65
2022-12-23T19:06:57.816Z,15.54
2022-12-23T19:09:25.878Z,15.55
2022-12-23T19:11:54.396Z,15.87
2022-12-23T19:14:22.899Z,15.81
2022-12-23T19:16:52.719Z,15.68
2022-12-23T19:19:22.374Z,16.13
2022-12-23T19:21:49.839Z,15.97
2022-12-23T19:24:18.730Z,16.18
2022-12-23T19:26:46.073Z,16.16
2022-12-23T19:29:13.478Z,16.40
2022-12-23T19:31:41.636Z,15.99
2022-12-23T19:34:15.121Z,16.22
2022-12-23T19:36:43.965Z,16.18
2022-12-23T19:39:16.843Z,16.16
2022-12-23T19:41:47.599Z,15.84
2022-12-23T19:44:15.027Z,16.19
2022-12-23T19:46:43.476Z,15.75
2022-12-23T19:49:17.454Z,15.42
2022-12-23T19:51:46.638Z,15.53
2022-12-23T19:54:13.955Z,15.34
2022-12-23T19:56:41.462Z,15.35
2022-12-23T19:59:09.921Z,14.77
2022-12-23T20:01:39.192Z,14.97
2022-12-23T20:04:06.565Z,14.89
2022-12-23T20:06:38.411Z,14.64
2022-12-23T20:09:09.237Z,14.93
2022-12-23T20:11:40.875Z,15.36
2022-12-23T20:14:10.172Z,15.57
2022-12-23T20:16:39.983Z,15.25
2022-12-23T20:19:09.680Z,15.53
2022-12-23T20:21:37.745Z,15.68
2022-12-23T20:24:07.149Z,14.24
2022-12-23T20:26:38.662Z,15.09
2022-12-23T20:29:12.381Z,14.71
2022-12-23T20:31:40.077Z,14.31
2022-12-23T20:34:13.592Z,14.53
2022-12-23T20:36:41.016Z,14.97
2022-12-23T20:39:08.682Z,14.73
2022-12-23T20:41:36.144Z,14.52
2022-12-23T20:46:55.016Z,13.96
2022-12-23T20:49:25.263Z,13.85
2022-12-23T20:51:54.807Z,13.77
2022-12-23T20:54:26.385Z,13.98
2022-12-23T20:56:59.176Z,13.77
2022-12-23T20:59:36.780Z,13.95
2022-12-23T21:02:04.036Z,13.78
2022-12-23T21:04:33.361Z,13.98
2022-12-23T21:07:02.236Z,13.95
2022-12-23T21:09:31.139Z,13.78
2022-12-23T21:12:02.203Z,14.00
2022-12-23T21:14:31.187Z,13.96
2022-12-23T21:17:01.196Z,14.15
2022-12-23T21:19:29.059Z,14.20
2022-12-23T21:21:59.169Z,14.09
2022-12-23T21:24:31.343Z,14.09
2022-12-23T21:26:59.090Z,13.71
2022-12-23T21:29:28.281Z,13.73
2022-12-23T21:31:58.802Z,13.83
2022-12-23T21:34:28.506Z,13.95
2022-12-23T21:36:56.916Z,13.78
2022-12-23T21:39:24.129Z,13.58
2022-12-23T21:41:52.957Z,13.69
2022-12-23T21:44:21.230Z,13.55
2022-12-23T21:46:51.186Z,13.41
2022-12-23T21:49:22.193Z,13.43
2022-12-23T21:51:51.217Z,13.69
2022-12-23T21:54:18.441Z,13.79
2022-12-23T21:56:45.902Z,13.59
2022-12-23T21:59:15.592Z,13.42
2022-12-23T22:01:43.962Z,13.51
2022-12-23T22:04:11.838Z,13.93
2022-12-23T22:06:43.858Z,14.00
2022-12-23T22:09:18.465Z,13.88
2022-12-23T22:11:48.066Z,13.87
2022-12-23T22:14:19.007Z,13.98
2022-12-23T22:16:47.751Z,14.32
2022-12-23T22:19:16.989Z,14.28
2022-12-23T22:21:44.606Z,14.29
2022-12-23T22:24:12.393Z,14.37
2022-12-23T22:26:40.808Z,14.05
2022-12-23T22:29:08.480Z,13.91
2022-12-23T22:31:44.700Z,13.96
2022-12-23T22:34:19.983Z,13.80
2022-12-23T22:36:48.626Z,13.76
2022-12-23T22:39:20.928Z,13.96
2022-12-23T22:41:50.072Z,14.17
2022-12-23T22:44:17.951Z,14.28
2022-12-23T22:46:45.415Z,14.36
2022-12-23T22:49:15.667Z,14.25
2022-12-23T22:51:44.495Z,14.76
2022-12-23T22:54:12.158Z,14.85
2022-12-23T22:56:39.921Z,14.72
2022-12-23T22:59:07.275Z,14.95
2022-12-23T23:01:36.338Z,14.81
2022-12-23T23:04:05.036Z,15.10
2022-12-23T23:06:39.189Z,15.38
2022-12-23T23:09:09.414Z,15.64
2022-12-23T23:11:39.504Z,16.21
2022-12-23T23:14:07.619Z,14.40
2022-12-23T23:16:34.907Z,15.60
2022-12-23T23:19:04.053Z,16.21
2022-12-23T23:21:32.079Z,15.53
2022-12-23T23:23:59.236Z,15.73
2022-12-23T23:26:27.592Z,16.03
2022-12-23T23:28:56.533Z,15.61
2022-12-23T23:31:42.442Z,16.28
2022-12-23T23:34:10.849Z,16.12
2022-12-23T23:36:38.013Z,15.53
2022-12-23T23:39:05.413Z,16.15
2022-12-23T23:41:32.506Z,16.74
2022-12-23T23:43:59.695Z,16.69
2022-12-23T23:46:26.916Z,16.43
2022-12-23T23:48:54.145Z,16.45
2022-12-23T23:51:21.392Z,16.92
2022-12-23T23:53:48.556Z,17.05
2022-12-23T23:56:23.792Z,16.03
2022-12-23T23:58:52.180Z,16.10
